sensor_id;sensor_type;location;lat;lon;timestamp;temperature;humidity
8340;DHT22;4207;49.314;7.162;2023-04-08T00:00:09;8.30;99.90
8340;DHT22;4207;49.314;7.162;2023-04-08T00:02:39;8.30;99.90
8340;DHT22;4207;49.314;7.162;2023-04-08T00:05:08;8.20;99.90
8340;DHT22;4207;49.314;7.162;2023-04-08T00:07:36;8.20;99.90
8340;DHT22;4207;49.314;7.162;2023-04-08T00:10:05;8.20;99.90
8340;DHT22;4207;49.314;7.162;2023-04-08T00:12:34;8.10;99.90
8340;DHT22;4207;49.314;7.162;2023-04-08T00:15:03;8.10;99.90
8340;DHT22;4207;49.314;7.162;2023-04-08T00:17:34;8.10;99.90
8340;DHT22;4207;49.314;7.162;2023-04-08T00:20:02;8.10;99.90
8340;DHT22;4207;49.314;7.162;2023-04-08T00:22:31;8.10;99.90
8340;DHT22;4207;49.314;7.162;2023-04-08T00:24:59;8.10;99.90
8340;DHT22;4207;49.314;7.162;2023-04-08T00:27:28;8.00;99.90
8340;DHT22;4207;49.314;7.162;2023-04-08T00:29:57;8.00;99.90
8340;DHT22;4207;49.314;7.162;2023-04-08T00:32:27;8.10;99.90
8340;DHT22;4207;49.314;7.162;2023-04-08T00:34:55;8.10;99.90
8340;DHT22;4207;49.314;7.162;2023-04-08T00:37:23;8.10;99.90
8340;DHT22;4207;49.314;7.162;2023-04-08T00:39:54;8.10;99.90
8340;DHT22;4207;49.314;7.162;2023-04-08T00:42:22;8.10;99.90
8340;DHT22;4207;49.314;7.162;2023-04-08T00:44:50;8.20;99.90
8340;DHT22;4207;49.314;7.162;2023-04-08T00:47:20;8.10;99.90
8340;DHT22;4207;49.314;7.162;2023-04-08T00:49:48;8.10;99.90
8340;DHT22;4207;49.314;7.162;2023-04-08T00:52:16;8.10;99.90
8340;DHT22;4207;49.314;7.162;2023-04-08T00:54:44;8.10;99.90
8340;DHT22;4207;49.314;7.162;2023-04-08T00:57:12;8.10;99.90
8340;DHT22;4207;49.314;7.162;2023-04-08T00:59:40;8.10;99.90
8340;DHT22;4207;49.314;7.162;2023-04-08T01:02:14;8.10;99.90
8340;DHT22;4207;49.314;7.162;2023-04-08T01:04:54;8.10;99.90
8340;DHT22;4207;49.314;7.162;2023-04-08T01:07:28;8.10;99.90
8340;DHT22;4207;49.314;7.162;2023-04-08T01:10:02;8.10;99.90
8340;DHT22;4207;49.314;7.162;2023-04-08T01:12:36;8.10;99.90
8340;DHT22;4207;49.314;7.162;2023-04-08T01:15:09;8.30;99.90
8340;DHT22;4207;49.314;7.162;2023-04-08T01:17:39;8.10;99.90
8340;DHT22;4207;49.314;7.162;2023-04-08T01:20:13;8.10;99.90
8340;DHT22;4207;49.314;7.162;2023-04-08T01:22:54;8.10;99.90
8340;DHT22;4207;49.314;7.162;2023-04-08T01:25:29;8.10;99.90
8340;DHT22;4207;49.314;7.162;2023-04-08T01:28:02;8.10;99.90
8340;DHT22;4207;49.314;7.162;2023-04-08T01:30:32;8.10;99.90
8340;DHT22;4207;49.314;7.162;2023-04-08T01:33:01;8.10;99.90
8340;DHT22;4207;49.314;7.162;2023-04-08T01:35:31;8.10;99.90
8340;DHT22;4207;49.314;7.162;2023-04-08T01:38:00;8.10;99.90
8340;DHT22;4207;49.314;7.162;2023-04-08T01:40:31;8.10;99.90
8340;DHT22;4207;49.314;7.162;2023-04-08T01:43:05;8.10;99.90
8340;DHT22;4207;49.314;7.162;2023-04-08T01:45:37;8.10;99.90
8340;DHT22;4207;49.314;7.162;2023-04-08T01:48:06;8.10;99.90
8340;DHT22;4207;49.314;7.162;2023-04-08T01:50:41;8.10;99.90
8340;DHT22;4207;49.314;7.162;2023-04-08T01:53:12;8.10;99.90
8340;DHT22;4207;49.314;7.162;2023-04-08T01:55:41;8.10;99.90
8340;DHT22;4207;49.314;7.162;2023-04-08T01:58:19;8.00;99.90
8340;DHT22;4207;49.314;7.162;2023-04-08T02:00:48;8.10;99.90
8340;DHT22;4207;49.314;7.162;2023-04-08T02:03:20;8.10;99.90
8340;DHT22;4207;49.314;7.162;2023-04-08T02:05:50;8.10;99.90
8340;DHT22;4207;49.314;7.162;2023-04-08T02:08:18;8.10;99.90
8340;DHT22;4207;49.314;7.162;2023-04-08T02:10:47;8.10;99.90
8340;DHT22;4207;49.314;7.162;2023-04-08T02:13:16;8.10;99.90
8340;DHT22;4207;49.314;7.162;2023-04-08T02:15:51;8.10;99.90
8340;DHT22;4207;49.314;7.162;2023-04-08T02:18:25;8.10;99.90
8340;DHT22;4207;49.314;7.162;2023-04-08T02:20:57;8.10;99.90
8340;DHT22;4207;49.314;7.162;2023-04-08T02:23:27;8.20;99.90
8340;DHT22;4207;49.314;7.162;2023-04-08T02:25:56;8.20;99.90
8340;DHT22;4207;49.314;7.162;2023-04-08T02:28:30;8.20;99.90
8340;DHT22;4207;49.314;7.162;2023-04-08T02:30:59;8.20;99.90
8340;DHT22;4207;49.314;7.162;2023-04-08T02:33:28;8.10;99.90
8340;DHT22;4207;49.314;7.162;2023-04-08T02:35:56;8.10;99.90
8340;DHT22;4207;49.314;7.162;2023-04-08T02:38:25;8.10;99.90
8340;DHT22;4207;49.314;7.162;2023-04-08T02:40:56;8.10;99.90
8340;DHT22;4207;49.314;7.162;2023-04-08T02:43:24;8.10;99.90
8340;DHT22;4207;49.314;7.162;2023-04-08T02:46:00;8.10;99.90
8340;DHT22;4207;49.314;7.162;2023-04-08T02:48:29;8.10;99.90
8340;DHT22;4207;49.314;7.162;2023-04-08T02:50:58;8.20;99.90
8340;DHT22;4207;49.314;7.162;2023-04-08T02:53:26;8.20;99.90
8340;DHT22;4207;49.314;7.162;2023-04-08T02:55:54;8.20;99.90
8340;DHT22;4207;49.314;7.162;2023-04-08T02:58:22;8.20;99.90
8340;DHT22;4207;49.314;7.162;2023-04-08T03:00:51;8.20;99.90
8340;DHT22;4207;49.314;7.162;2023-04-08T03:03:20;8.20;99.90
8340;DHT22;4207;49.314;7.162;2023-04-08T03:05:53;8.20;99.90
8340;DHT22;4207;49.314;7.162;2023-04-08T03:08:22;8.20;99.90
8340;DHT22;4207;49.314;7.162;2023-04-08T03:10:50;8.20;99.90
8340;DHT22;4207;49.314;7.162;2023-04-08T03:13:18;8.10;99.90
8340;DHT22;4207;49.314;7.162;2023-04-08T03:15:46;8.10;99.90
8340;DHT22;4207;49.314;7.162;2023-04-08T03:18:14;8.20;99.90
8340;DHT22;4207;49.314;7.162;2023-04-08T03:20:45;8.20;99.90
8340;DHT22;4207;49.314;7.162;2023-04-08T03:23:12;8.10;99.90
8340;DHT22;4207;49.314;7.162;2023-04-08T03:25:40;8.10;99.90
8340;DHT22;4207;49.314;7.162;2023-04-08T03:28:08;8.10;99.90
8340;DHT22;4207;49.314;7.162;2023-04-08T03:30:37;8.10;99.90
8340;DHT22;4207;49.314;7.162;2023-04-08T03:33:05;8.10;99.90
8340;DHT22;4207;49.314;7.162;2023-04-08T03:35:34;8.10;99.90
8340;DHT22;4207;49.314;7.162;2023-04-08T03:38:04;8.10;99.90
8340;DHT22;4207;49.314;7.162;2023-04-08T03:40:32;8.10;99.90
8340;DHT22;4207;49.314;7.162;2023-04-08T03:43:01;8.20;99.90
8340;DHT22;4207;49.314;7.162;2023-04-08T03:45:29;8.20;99.90
8340;DHT22;4207;49.314;7.162;2023-04-08T03:47:57;8.20;99.90
8340;DHT22;4207;49.314;7.162;2023-04-08T03:50:25;8.20;99.90
8340;DHT22;4207;49.314;7.162;2023-04-08T03:52:56;8.20;99.90
8340;DHT22;4207;49.314;7.162;2023-04-08T03:55:26;8.10;99.90
8340;DHT22;4207;49.314;7.162;2023-04-08T03:57:54;8.10;99.90
8340;DHT22;4207;49.314;7.162;2023-04-08T04:00:22;8.20;99.90
8340;DHT22;4207;49.314;7.162;2023-04-08T04:02:50;8.20;99.90
8340;DHT22;4207;49.314;7.162;2023-04-08T04:05:18;8.20;99.90
8340;DHT22;4207;49.314;7.162;2023-04-08T04:07:47;8.20;99.90
8340;DHT22;4207;49.314;7.162;2023-04-08T04:10:15;8.20;99.90
8340;DHT22;4207;49.314;7.162;2023-04-08T04:12:44;8.20;99.90
8340;DHT22;4207;49.314;7.162;2023-04-08T04:15:13;8.20;99.90
8340;DHT22;4207;49.314;7.162;2023-04-08T04:17:41;8.10;99.90
8340;DHT22;4207;49.314;7.162;2023-04-08T04:20:10;8.10;99.90
8340;DHT22;4207;49.314;7.162;2023-04-08T04:22:39;8.10;99.90
8340;DHT22;4207;49.314;7.162;2023-04-08T04:25:07;8.10;99.90
8340;DHT22;4207;49.314;7.162;2023-04-08T04:27:36;8.10;99.90
8340;DHT22;4207;49.314;7.162;2023-04-08T04:30:06;8.20;99.90
8340;DHT22;4207;49.314;7.162;2023-04-08T04:32:35;8.10;99.90
8340;DHT22;4207;49.314;7.162;2023-04-08T04:35:04;8.10;99.90
8340;DHT22;4207;49.314;7.162;2023-04-08T04:37:32;8.10;99.90
8340;DHT22;4207;49.314;7.162;2023-04-08T04:40:00;8.10;99.90
8340;DHT22;4207;49.314;7.162;2023-04-08T04:42:28;8.10;99.90
8340;DHT22;4207;49.314;7.162;2023-04-08T04:44:57;8.10;99.90
8340;DHT22;4207;49.314;7.162;2023-04-08T04:47:26;8.10;99.90
8340;DHT22;4207;49.314;7.162;2023-04-08T04:49:55;8.10;99.90
8340;DHT22;4207;49.314;7.162;2023-04-08T04:52:23;8.20;99.90
8340;DHT22;4207;49.314;7.162;2023-04-08T04:54:51;8.10;99.90
8340;DHT22;4207;49.314;7.162;2023-04-08T04:57:19;8.10;99.90
8340;DHT22;4207;49.314;7.162;2023-04-08T04:59:47;8.10;99.90
8340;DHT22;4207;49.314;7.162;2023-04-08T05:02:16;8.10;99.90
8340;DHT22;4207;49.314;7.162;2023-04-08T05:04:45;8.10;99.90
8340;DHT22;4207;49.314;7.162;2023-04-08T05:07:13;8.10;99.90
8340;DHT22;4207;49.314;7.162;2023-04-08T05:09:42;8.10;99.90
8340;DHT22;4207;49.314;7.162;2023-04-08T05:12:10;8.10;99.90
8340;DHT22;4207;49.314;7.162;2023-04-08T05:14:38;8.10;99.90
8340;DHT22;4207;49.314;7.162;2023-04-08T05:17:07;8.10;99.90
8340;DHT22;4207;49.314;7.162;2023-04-08T05:19:35;8.10;99.90
8340;DHT22;4207;49.314;7.162;2023-04-08T05:22:05;8.10;99.90
8340;DHT22;4207;49.314;7.162;2023-04-08T05:24:33;8.10;99.90
8340;DHT22;4207;49.314;7.162;2023-04-08T05:27:02;8.10;99.90
8340;DHT22;4207;49.314;7.162;2023-04-08T05:29:30;8.10;99.90
8340;DHT22;4207;49.314;7.162;2023-04-08T05:31:58;8.10;99.90
8340;DHT22;4207;49.314;7.162;2023-04-08T05:34:26;8.10;99.90
8340;DHT22;4207;49.314;7.162;2023-04-08T05:36:55;8.10;99.90
8340;DHT22;4207;49.314;7.162;2023-04-08T05:39:24;8.10;99.90
8340;DHT22;4207;49.314;7.162;2023-04-08T05:41:52;8.10;99.90
8340;DHT22;4207;49.314;7.162;2023-04-08T05:44:20;8.20;99.90
8340;DHT22;4207;49.314;7.162;2023-04-08T05:46:49;8.20;99.90
8340;DHT22;4207;49.314;7.162;2023-04-08T05:49:17;8.20;99.90
8340;DHT22;4207;49.314;7.162;2023-04-08T05:51:46;8.20;99.90
8340;DHT22;4207;49.314;7.162;2023-04-08T05:54:14;8.20;99.90
8340;DHT22;4207;49.314;7.162;2023-04-08T05:56:44;8.20;99.90
8340;DHT22;4207;49.314;7.162;2023-04-08T05:59:13;8.30;99.90
8340;DHT22;4207;49.314;7.162;2023-04-08T06:01:44;8.30;99.90
8340;DHT22;4207;49.314;7.162;2023-04-08T06:04:12;8.30;99.90
8340;DHT22;4207;49.314;7.162;2023-04-08T06:06:40;8.30;99.90
8340;DHT22;4207;49.314;7.162;2023-04-08T06:09:08;8.40;99.90
8340;DHT22;4207;49.314;7.162;2023-04-08T06:11:37;8.40;99.90
8340;DHT22;4207;49.314;7.162;2023-04-08T06:14:06;8.50;99.90
8340;DHT22;4207;49.314;7.162;2023-04-08T06:16:34;8.60;99.90
8340;DHT22;4207;49.314;7.162;2023-04-08T06:19:02;8.60;99.90
8340;DHT22;4207;49.314;7.162;2023-04-08T06:21:30;8.70;99.90
8340;DHT22;4207;49.314;7.162;2023-04-08T06:23:58;8.70;99.90
8340;DHT22;4207;49.314;7.162;2023-04-08T06:26:27;8.80;99.90
8340;DHT22;4207;49.314;7.162;2023-04-08T06:28:56;8.90;99.90
8340;DHT22;4207;49.314;7.162;2023-04-08T06:31:28;8.90;99.90
8340;DHT22;4207;49.314;7.162;2023-04-08T06:33:56;9.00;99.90
8340;DHT22;4207;49.314;7.162;2023-04-08T06:36:24;9.00;99.90
8340;DHT22;4207;49.314;7.162;2023-04-08T06:38:54;9.00;99.90
8340;DHT22;4207;49.314;7.162;2023-04-08T06:41:22;9.10;99.90
8340;DHT22;4207;49.314;7.162;2023-04-08T06:43:49;9.10;99.90
8340;DHT22;4207;49.314;7.162;2023-04-08T06:46:19;9.20;99.90
8340;DHT22;4207;49.314;7.162;2023-04-08T06:48:49;9.30;99.90
8340;DHT22;4207;49.314;7.162;2023-04-08T06:51:17;9.30;99.90
8340;DHT22;4207;49.314;7.162;2023-04-08T06:53:45;9.40;99.90
8340;DHT22;4207;49.314;7.162;2023-04-08T06:56:13;9.50;99.90
8340;DHT22;4207;49.314;7.162;2023-04-08T06:58:41;9.60;99.90
8340;DHT22;4207;49.314;7.162;2023-04-08T07:01:09;9.60;99.90
8340;DHT22;4207;49.314;7.162;2023-04-08T07:03:38;9.70;99.90
8340;DHT22;4207;49.314;7.162;2023-04-08T07:06:09;9.70;99.90
8340;DHT22;4207;49.314;7.162;2023-04-08T07:08:37;9.70;99.90
8340;DHT22;4207;49.314;7.162;2023-04-08T07:11:05;9.70;99.90
8340;DHT22;4207;49.314;7.162;2023-04-08T07:13:33;9.80;99.90
8340;DHT22;4207;49.314;7.162;2023-04-08T07:16:01;9.70;99.90
8340;DHT22;4207;49.314;7.162;2023-04-08T07:18:30;9.80;99.90
8340;DHT22;4207;49.314;7.162;2023-04-08T07:20:58;9.90;99.90
8340;DHT22;4207;49.314;7.162;2023-04-08T07:23:29;10.00;99.90
8340;DHT22;4207;49.314;7.162;2023-04-08T07:26:01;10.00;99.90
8340;DHT22;4207;49.314;7.162;2023-04-08T07:28:32;10.10;99.90
8340;DHT22;4207;49.314;7.162;2023-04-08T07:31:09;10.10;99.90
8340;DHT22;4207;49.314;7.162;2023-04-08T07:33:37;10.20;99.90
8340;DHT22;4207;49.314;7.162;2023-04-08T07:36:05;10.30;99.90
8340;DHT22;4207;49.314;7.162;2023-04-08T07:38:35;10.40;99.90
8340;DHT22;4207;49.314;7.162;2023-04-08T07:41:03;10.50;99.90
8340;DHT22;4207;49.314;7.162;2023-04-08T07:43:31;10.60;99.90
8340;DHT22;4207;49.314;7.162;2023-04-08T07:46:00;10.70;99.90
8340;DHT22;4207;49.314;7.162;2023-04-08T07:48:29;10.80;99.90
8340;DHT22;4207;49.314;7.162;2023-04-08T07:51:02;10.90;99.90
8340;DHT22;4207;49.314;7.162;2023-04-08T07:53:38;11.00;99.90
8340;DHT22;4207;49.314;7.162;2023-04-08T07:56:11;11.10;99.90
8340;DHT22;4207;49.314;7.162;2023-04-08T07:58:39;11.30;99.90
8340;DHT22;4207;49.314;7.162;2023-04-08T08:01:15;11.40;99.90
8340;DHT22;4207;49.314;7.162;2023-04-08T08:03:43;11.60;99.90
8340;DHT22;4207;49.314;7.162;2023-04-08T08:06:14;11.60;99.90
8340;DHT22;4207;49.314;7.162;2023-04-08T08:08:43;11.70;99.90
8340;DHT22;4207;49.314;7.162;2023-04-08T08:11:12;11.90;99.90
8340;DHT22;4207;49.314;7.162;2023-04-08T08:13:40;12.00;99.90
8340;DHT22;4207;49.314;7.162;2023-04-08T08:16:08;12.00;99.90
8340;DHT22;4207;49.314;7.162;2023-04-08T08:18:38;12.00;99.90
8340;DHT22;4207;49.314;7.162;2023-04-08T08:21:07;12.00;99.90
8340;DHT22;4207;49.314;7.162;2023-04-08T08:23:35;12.00;99.90
8340;DHT22;4207;49.314;7.162;2023-04-08T08:26:06;12.10;99.90
8340;DHT22;4207;49.314;7.162;2023-04-08T08:28:36;12.20;99.90
8340;DHT22;4207;49.314;7.162;2023-04-08T08:31:04;12.10;99.90
8340;DHT22;4207;49.314;7.162;2023-04-08T08:33:32;12.10;99.90
8340;DHT22;4207;49.314;7.162;2023-04-08T08:36:00;12.10;99.90
8340;DHT22;4207;49.314;7.162;2023-04-08T08:38:30;11.90;99.90
8340;DHT22;4207;49.314;7.162;2023-04-08T08:41:01;11.90;99.90
8340;DHT22;4207;49.314;7.162;2023-04-08T08:43:31;11.80;99.90
8340;DHT22;4207;49.314;7.162;2023-04-08T08:46:00;11.80;99.90
8340;DHT22;4207;49.314;7.162;2023-04-08T08:48:30;12.00;99.90
8340;DHT22;4207;49.314;7.162;2023-04-08T08:50:58;12.10;99.90
8340;DHT22;4207;49.314;7.162;2023-04-08T08:53:29;12.20;99.90
8340;DHT22;4207;49.314;7.162;2023-04-08T08:56:03;12.30;99.90
8340;DHT22;4207;49.314;7.162;2023-04-08T08:58:46;12.30;99.90
8340;DHT22;4207;49.314;7.162;2023-04-08T09:01:34;12.50;99.90
8340;DHT22;4207;49.314;7.162;2023-04-08T09:04:21;12.60;99.90
8340;DHT22;4207;49.314;7.162;2023-04-08T09:07:07;12.80;99.90
8340;DHT22;4207;49.314;7.162;2023-04-08T09:09:47;12.80;99.90
8340;DHT22;4207;49.314;7.162;2023-04-08T09:12:16;12.80;99.90
8340;DHT22;4207;49.314;7.162;2023-04-08T09:14:45;12.80;99.90
8340;DHT22;4207;49.314;7.162;2023-04-08T09:17:14;12.90;99.90
8340;DHT22;4207;49.314;7.162;2023-04-08T09:20:04;13.10;99.90
8340;DHT22;4207;49.314;7.162;2023-04-08T09:22:54;13.50;99.90
8340;DHT22;4207;49.314;7.162;2023-04-08T09:25:24;13.90;99.90
8340;DHT22;4207;49.314;7.162;2023-04-08T09:27:52;14.20;99.90
8340;DHT22;4207;49.314;7.162;2023-04-08T09:30:26;14.40;99.90
8340;DHT22;4207;49.314;7.162;2023-04-08T09:32:56;14.50;99.90
8340;DHT22;4207;49.314;7.162;2023-04-08T09:35:24;14.40;99.90
8340;DHT22;4207;49.314;7.162;2023-04-08T09:37:53;14.40;99.90
8340;DHT22;4207;49.314;7.162;2023-04-08T09:40:24;14.50;99.90
8340;DHT22;4207;49.314;7.162;2023-04-08T09:42:55;14.50;99.90
8340;DHT22;4207;49.314;7.162;2023-04-08T09:45:27;14.60;99.90
8340;DHT22;4207;49.314;7.162;2023-04-08T09:48:03;14.60;99.90
8340;DHT22;4207;49.314;7.162;2023-04-08T09:50:39;14.70;99.90
8340;DHT22;4207;49.314;7.162;2023-04-08T09:53:15;14.70;99.90
8340;DHT22;4207;49.314;7.162;2023-04-08T09:55:50;14.60;99.90
8340;DHT22;4207;49.314;7.162;2023-04-08T09:58:21;14.50;99.90
8340;DHT22;4207;49.314;7.162;2023-04-08T10:00:55;14.30;99.90
8340;DHT22;4207;49.314;7.162;2023-04-08T10:03:28;14.10;99.90
8340;DHT22;4207;49.314;7.162;2023-04-08T10:06:01;13.90;99.90
8340;DHT22;4207;49.314;7.162;2023-04-08T10:08:30;13.70;99.90
8340;DHT22;4207;49.314;7.162;2023-04-08T10:10:58;13.50;99.90
8340;DHT22;4207;49.314;7.162;2023-04-08T10:13:27;13.40;99.90
8340;DHT22;4207;49.314;7.162;2023-04-08T10:16:21;13.30;99.90
8340;DHT22;4207;49.314;7.162;2023-04-08T10:18:50;13.40;99.90
8340;DHT22;4207;49.314;7.162;2023-04-08T10:21:34;13.40;99.90
8340;DHT22;4207;49.314;7.162;2023-04-08T10:24:06;13.40;99.90
8340;DHT22;4207;49.314;7.162;2023-04-08T10:26:37;13.50;99.90
8340;DHT22;4207;49.314;7.162;2023-04-08T10:29:30;13.70;99.90
8340;DHT22;4207;49.314;7.162;2023-04-08T10:32:00;13.90;99.90
8340;DHT22;4207;49.314;7.162;2023-04-08T10:34:29;14.10;99.90
8340;DHT22;4207;49.314;7.162;2023-04-08T10:36:57;14.20;99.90
8340;DHT22;4207;49.314;7.162;2023-04-08T10:39:30;14.10;99.90
8340;DHT22;4207;49.314;7.162;2023-04-08T10:42:00;14.00;99.90
8340;DHT22;4207;49.314;7.162;2023-04-08T10:44:29;13.90;99.90
8340;DHT22;4207;49.314;7.162;2023-04-08T10:46:57;13.70;99.90
8340;DHT22;4207;49.314;7.162;2023-04-08T10:49:33;13.60;99.90
8340;DHT22;4207;49.314;7.162;2023-04-08T10:52:06;13.40;99.90
8340;DHT22;4207;49.314;7.162;2023-04-08T10:54:36;13.40;99.90
8340;DHT22;4207;49.314;7.162;2023-04-08T10:57:05;13.30;99.90
8340;DHT22;4207;49.314;7.162;2023-04-08T10:59:34;13.30;99.90
8340;DHT22;4207;49.314;7.162;2023-04-08T11:02:03;13.40;99.90
8340;DHT22;4207;49.314;7.162;2023-04-08T11:04:32;13.50;99.90
8340;DHT22;4207;49.314;7.162;2023-04-08T11:07:04;13.50;99.90
8340;DHT22;4207;49.314;7.162;2023-04-08T11:09:33;13.50;99.90
8340;DHT22;4207;49.314;7.162;2023-04-08T11:12:01;13.60;99.90
8340;DHT22;4207;49.314;7.162;2023-04-08T11:14:30;13.80;99.90
8340;DHT22;4207;49.314;7.162;2023-04-08T11:16:58;13.80;99.90
8340;DHT22;4207;49.314;7.162;2023-04-08T11:19:27;13.90;99.90
8340;DHT22;4207;49.314;7.162;2023-04-08T11:21:57;14.00;99.90
8340;DHT22;4207;49.314;7.162;2023-04-08T11:24:25;14.20;99.90
8340;DHT22;4207;49.314;7.162;2023-04-08T11:26:54;14.30;99.90
8340;DHT22;4207;49.314;7.162;2023-04-08T11:29:22;14.40;99.90
8340;DHT22;4207;49.314;7.162;2023-04-08T11:31:56;14.50;99.90
8340;DHT22;4207;49.314;7.162;2023-04-08T11:34:24;14.40;99.90
8340;DHT22;4207;49.314;7.162;2023-04-08T11:36:52;14.20;99.90
8340;DHT22;4207;49.314;7.162;2023-04-08T11:39:23;14.10;99.90
8340;DHT22;4207;49.314;7.162;2023-04-08T11:41:51;14.00;99.90
8340;DHT22;4207;49.314;7.162;2023-04-08T11:44:20;13.90;99.90
8340;DHT22;4207;49.314;7.162;2023-04-08T11:46:58;13.70;99.90
8340;DHT22;4207;49.314;7.162;2023-04-08T11:49:42;13.60;99.90
8340;DHT22;4207;49.314;7.162;2023-04-08T11:52:11;13.50;99.90
8340;DHT22;4207;49.314;7.162;2023-04-08T11:54:41;13.40;99.90
8340;DHT22;4207;49.314;7.162;2023-04-08T11:57:10;13.30;99.90
8340;DHT22;4207;49.314;7.162;2023-04-08T11:59:38;13.20;99.90
8340;DHT22;4207;49.314;7.162;2023-04-08T12:02:06;13.10;99.90
8340;DHT22;4207;49.314;7.162;2023-04-08T12:04:34;13.00;99.90
8340;DHT22;4207;49.314;7.162;2023-04-08T12:07:02;13.00;99.90
8340;DHT22;4207;49.314;7.162;2023-04-08T12:09:31;13.00;99.90
8340;DHT22;4207;49.314;7.162;2023-04-08T12:12:00;13.00;99.90
8340;DHT22;4207;49.314;7.162;2023-04-08T12:14:29;13.00;99.90
8340;DHT22;4207;49.314;7.162;2023-04-08T12:16:56;13.00;99.90
8340;DHT22;4207;49.314;7.162;2023-04-08T12:19:26;13.00;99.90
8340;DHT22;4207;49.314;7.162;2023-04-08T12:21:54;13.10;99.90
8340;DHT22;4207;49.314;7.162;2023-04-08T12:24:22;13.10;99.90
8340;DHT22;4207;49.314;7.162;2023-04-08T12:26:50;13.30;99.90
8340;DHT22;4207;49.314;7.162;2023-04-08T12:29:19;13.40;99.90
8340;DHT22;4207;49.314;7.162;2023-04-08T12:31:47;13.60;99.90
8340;DHT22;4207;49.314;7.162;2023-04-08T12:34:15;13.90;99.90
8340;DHT22;4207;49.314;7.162;2023-04-08T12:36:43;14.20;99.90
8340;DHT22;4207;49.314;7.162;2023-04-08T12:39:11;14.50;99.90
8340;DHT22;4207;49.314;7.162;2023-04-08T12:41:39;14.80;99.90
8340;DHT22;4207;49.314;7.162;2023-04-08T12:44:08;14.90;99.80
8340;DHT22;4207;49.314;7.162;2023-04-08T12:46:37;15.00;99.40
8340;DHT22;4207;49.314;7.162;2023-04-08T12:49:06;15.10;99.40
8340;DHT22;4207;49.314;7.162;2023-04-08T12:51:35;15.20;99.90
8340;DHT22;4207;49.314;7.162;2023-04-08T12:54:03;15.20;98.90
8340;DHT22;4207;49.314;7.162;2023-04-08T12:56:31;15.00;98.60
8340;DHT22;4207;49.314;7.162;2023-04-08T12:58:59;15.00;98.60
8340;DHT22;4207;49.314;7.162;2023-04-08T13:01:27;14.80;96.60
8340;DHT22;4207;49.314;7.162;2023-04-08T13:03:58;14.80;95.40
8340;DHT22;4207;49.314;7.162;2023-04-08T13:06:26;14.70;94.40
8340;DHT22;4207;49.314;7.162;2023-04-08T13:08:55;14.70;94.30
8340;DHT22;4207;49.314;7.162;2023-04-08T13:11:25;14.80;94.00
8340;DHT22;4207;49.314;7.162;2023-04-08T13:13:54;14.80;94.50
8340;DHT22;4207;49.314;7.162;2023-04-08T13:16:22;14.80;94.70
8340;DHT22;4207;49.314;7.162;2023-04-08T13:18:50;14.90;95.40
8340;DHT22;4207;49.314;7.162;2023-04-08T13:21:20;14.80;94.50
8340;DHT22;4207;49.314;7.162;2023-04-08T13:23:50;14.70;94.60
8340;DHT22;4207;49.314;7.162;2023-04-08T13:26:18;14.70;96.20
8340;DHT22;4207;49.314;7.162;2023-04-08T13:28:46;15.00;96.40
8340;DHT22;4207;49.314;7.162;2023-04-08T13:31:23;15.00;94.90
8340;DHT22;4207;49.314;7.162;2023-04-08T13:33:51;15.20;95.10
8340;DHT22;4207;49.314;7.162;2023-04-08T13:36:25;15.20;96.30
8340;DHT22;4207;49.314;7.162;2023-04-08T13:38:54;15.20;97.90
8340;DHT22;4207;49.314;7.162;2023-04-08T13:41:23;15.30;98.10
8340;DHT22;4207;49.314;7.162;2023-04-08T13:43:53;15.30;98.80
8340;DHT22;4207;49.314;7.162;2023-04-08T13:46:22;15.30;98.50
8340;DHT22;4207;49.314;7.162;2023-04-08T13:48:53;15.30;99.20
8340;DHT22;4207;49.314;7.162;2023-04-08T13:51:21;15.20;98.50
8340;DHT22;4207;49.314;7.162;2023-04-08T13:53:50;15.30;98.70
8340;DHT22;4207;49.314;7.162;2023-04-08T13:56:18;15.40;99.20
8340;DHT22;4207;49.314;7.162;2023-04-08T13:58:46;15.40;98.10
8340;DHT22;4207;49.314;7.162;2023-04-08T14:01:23;15.30;97.40
8340;DHT22;4207;49.314;7.162;2023-04-08T14:03:51;15.20;96.40
8340;DHT22;4207;49.314;7.162;2023-04-08T14:06:19;15.20;96.70
8340;DHT22;4207;49.314;7.162;2023-04-08T14:08:47;15.10;96.20
8340;DHT22;4207;49.314;7.162;2023-04-08T14:11:17;15.10;95.50
8340;DHT22;4207;49.314;7.162;2023-04-08T14:13:45;15.10;93.40
8340;DHT22;4207;49.314;7.162;2023-04-08T14:16:13;15.00;92.20
8340;DHT22;4207;49.314;7.162;2023-04-08T14:18:42;15.00;93.30
8340;DHT22;4207;49.314;7.162;2023-04-08T14:21:10;15.00;91.20
8340;DHT22;4207;49.314;7.162;2023-04-08T14:23:41;15.10;90.30
8340;DHT22;4207;49.314;7.162;2023-04-08T14:26:09;15.10;91.40
8340;DHT22;4207;49.314;7.162;2023-04-08T14:28:39;14.80;90.20
8340;DHT22;4207;49.314;7.162;2023-04-08T14:31:07;14.50;87.60
8340;DHT22;4207;49.314;7.162;2023-04-08T14:33:39;14.10;86.50
8340;DHT22;4207;49.314;7.162;2023-04-08T14:36:08;13.70;85.70
8340;DHT22;4207;49.314;7.162;2023-04-08T14:38:36;13.60;86.10
8340;DHT22;4207;49.314;7.162;2023-04-08T14:41:04;13.40;84.50
8340;DHT22;4207;49.314;7.162;2023-04-08T14:43:33;13.40;85.70
8340;DHT22;4207;49.314;7.162;2023-04-08T14:46:02;13.40;85.00
8340;DHT22;4207;49.314;7.162;2023-04-08T14:48:30;13.30;83.80
8340;DHT22;4207;49.314;7.162;2023-04-08T14:50:58;13.30;85.30
8340;DHT22;4207;49.314;7.162;2023-04-08T14:53:26;13.30;87.00
8340;DHT22;4207;49.314;7.162;2023-04-08T14:55:55;13.30;89.80
8340;DHT22;4207;49.314;7.162;2023-04-08T14:58:23;13.30;88.40
8340;DHT22;4207;49.314;7.162;2023-04-08T15:00:51;13.30;89.10
8340;DHT22;4207;49.314;7.162;2023-04-08T15:03:22;13.30;89.20
8340;DHT22;4207;49.314;7.162;2023-04-08T15:05:56;13.30;90.50
8340;DHT22;4207;49.314;7.162;2023-04-08T15:08:25;13.30;90.60
8340;DHT22;4207;49.314;7.162;2023-04-08T15:10:53;13.30;90.70
8340;DHT22;4207;49.314;7.162;2023-04-08T15:13:22;13.20;90.10
8340;DHT22;4207;49.314;7.162;2023-04-08T15:15:52;13.10;90.00
8340;DHT22;4207;49.314;7.162;2023-04-08T15:18:21;13.00;90.90
8340;DHT22;4207;49.314;7.162;2023-04-08T15:20:49;13.00;91.40
8340;DHT22;4207;49.314;7.162;2023-04-08T15:23:17;13.00;91.30
8340;DHT22;4207;49.314;7.162;2023-04-08T15:25:45;13.00;91.80
8340;DHT22;4207;49.314;7.162;2023-04-08T15:28:14;13.00;92.30
8340;DHT22;4207;49.314;7.162;2023-04-08T15:30:44;13.00;93.50
8340;DHT22;4207;49.314;7.162;2023-04-08T15:33:12;13.10;92.80
8340;DHT22;4207;49.314;7.162;2023-04-08T15:35:44;13.20;93.20
8340;DHT22;4207;49.314;7.162;2023-04-08T15:38:13;13.20;92.40
8340;DHT22;4207;49.314;7.162;2023-04-08T15:40:41;13.30;93.00
8340;DHT22;4207;49.314;7.162;2023-04-08T15:43:13;13.30;93.40
8340;DHT22;4207;49.314;7.162;2023-04-08T15:45:42;13.40;93.30
8340;DHT22;4207;49.314;7.162;2023-04-08T15:48:12;13.60;92.90
8340;DHT22;4207;49.314;7.162;2023-04-08T15:50:41;13.80;93.60
8340;DHT22;4207;49.314;7.162;2023-04-08T15:53:09;13.90;93.30
8340;DHT22;4207;49.314;7.162;2023-04-08T15:55:38;13.90;93.60
8340;DHT22;4207;49.314;7.162;2023-04-08T15:58:06;13.90;94.00
8340;DHT22;4207;49.314;7.162;2023-04-08T16:00:35;13.90;93.80
8340;DHT22;4207;49.314;7.162;2023-04-08T16:03:03;13.90;94.00
8340;DHT22;4207;49.314;7.162;2023-04-08T16:05:37;13.90;94.60
8340;DHT22;4207;49.314;7.162;2023-04-08T16:08:08;14.00;95.00
8340;DHT22;4207;49.314;7.162;2023-04-08T16:10:37;14.00;95.50
8340;DHT22;4207;49.314;7.162;2023-04-08T16:13:05;13.80;95.20
8340;DHT22;4207;49.314;7.162;2023-04-08T16:15:33;13.80;95.60
8340;DHT22;4207;49.314;7.162;2023-04-08T16:18:02;13.80;95.70
8340;DHT22;4207;49.314;7.162;2023-04-08T16:20:32;13.70;96.20
8340;DHT22;4207;49.314;7.162;2023-04-08T16:23:00;13.80;96.60
8340;DHT22;4207;49.314;7.162;2023-04-08T16:25:29;13.80;96.70